sensor_id;sensor_type;location;lat;lon;timestamp;temperature;humidity
6260;DHT22;3163;51.516;4.000;2023-03-14T00:01:19;12.70;99.90
6260;DHT22;3163;51.516;4.000;2023-03-14T00:03:48;12.70;99.90
6260;DHT22;3163;51.516;4.000;2023-03-14T00:06:14;12.70;99.90
6260;DHT22;3163;51.516;4.000;2023-03-14T00:08:41;12.60;99.90
6260;DHT22;3163;51.516;4.000;2023-03-14T00:11:08;12.60;99.90
6260;DHT22;3163;51.516;4.000;2023-03-14T00:13:34;12.70;99.90
6260;DHT22;3163;51.516;4.000;2023-03-14T00:16:08;12.70;99.90
6260;DHT22;3163;51.516;4.000;2023-03-14T00:18:34;12.60;99.90
6260;DHT22;3163;51.516;4.000;2023-03-14T00:21:01;12.60;99.90
6260;DHT22;3163;51.516;4.000;2023-03-14T00:23:28;12.70;99.90
6260;DHT22;3163;51.516;4.000;2023-03-14T00:25:58;12.70;99.90
6260;DHT22;3163;51.516;4.000;2023-03-14T00:28:24;12.60;99.90
6260;DHT22;3163;51.516;4.000;2023-03-14T00:30:49;12.70;99.90
6260;DHT22;3163;51.516;4.000;2023-03-14T00:33:15;12.70;99.90
6260;DHT22;3163;51.516;4.000;2023-03-14T00:35:41;12.60;99.90
6260;DHT22;3163;51.516;4.000;2023-03-14T00:38:06;12.60;99.90
6260;DHT22;3163;51.516;4.000;2023-03-14T00:40:32;12.60;99.90
6260;DHT22;3163;51.516;4.000;2023-03-14T00:42:57;12.60;99.90
6260;DHT22;3163;51.516;4.000;2023-03-14T00:45:23;12.60;99.90
6260;DHT22;3163;51.516;4.000;2023-03-14T00:47:48;12.50;99.90
6260;DHT22;3163;51.516;4.000;2023-03-14T00:50:14;12.50;99.90
6260;DHT22;3163;51.516;4.000;2023-03-14T00:52:40;12.50;99.90
6260;DHT22;3163;51.516;4.000;2023-03-14T00:55:05;12.50;99.90
6260;DHT22;3163;51.516;4.000;2023-03-14T00:57:31;12.50;99.90
6260;DHT22;3163;51.516;4.000;2023-03-14T00:59:57;12.50;99.90
6260;DHT22;3163;51.516;4.000;2023-03-14T01:02:22;12.50;99.90
6260;DHT22;3163;51.516;4.000;2023-03-14T01:04:48;12.50;99.90
6260;DHT22;3163;51.516;4.000;2023-03-14T01:07:15;12.50;99.90
6260;DHT22;3163;51.516;4.000;2023-03-14T01:09:41;12.50;99.90
6260;DHT22;3163;51.516;4.000;2023-03-14T01:12:06;12.50;99.90
6260;DHT22;3163;51.516;4.000;2023-03-14T01:14:32;12.60;99.90
6260;DHT22;3163;51.516;4.000;2023-03-14T01:16:58;12.50;99.90
6260;DHT22;3163;51.516;4.000;2023-03-14T01:19:27;12.50;99.90
6260;DHT22;3163;51.516;4.000;2023-03-14T01:21:53;12.50;99.90
6260;DHT22;3163;51.516;4.000;2023-03-14T01:24:19;12.50;99.90
6260;DHT22;3163;51.516;4.000;2023-03-14T01:26:45;12.50;99.90
6260;DHT22;3163;51.516;4.000;2023-03-14T01:29:11;12.40;99.90
6260;DHT22;3163;51.516;4.000;2023-03-14T01:31:36;12.40;99.90
6260;DHT22;3163;51.516;4.000;2023-03-14T01:34:02;12.50;99.90
6260;DHT22;3163;51.516;4.000;2023-03-14T01:36:28;12.40;99.90
6260;DHT22;3163;51.516;4.000;2023-03-14T01:38:53;12.50;99.90
6260;DHT22;3163;51.516;4.000;2023-03-14T01:41:22;12.50;99.90
6260;DHT22;3163;51.516;4.000;2023-03-14T01:43:49;12.50;99.90
6260;DHT22;3163;51.516;4.000;2023-03-14T01:46:39;12.40;99.90
6260;DHT22;3163;51.516;4.000;2023-03-14T01:51:50;12.40;99.90
6260;DHT22;3163;51.516;4.000;2023-03-14T01:54:33;12.40;99.90
6260;DHT22;3163;51.516;4.000;2023-03-14T01:59:33;12.40;99.90
6260;DHT22;3163;51.516;4.000;2023-03-14T02:02:00;12.40;99.90
6260;DHT22;3163;51.516;4.000;2023-03-14T02:04:29;12.50;99.90
6260;DHT22;3163;51.516;4.000;2023-03-14T02:09:53;12.40;99.90
6260;DHT22;3163;51.516;4.000;2023-03-14T02:12:21;12.30;99.90
6260;DHT22;3163;51.516;4.000;2023-03-14T02:14:47;12.30;99.90
6260;DHT22;3163;51.516;4.000;2023-03-14T02:17:15;12.30;99.90
6260;DHT22;3163;51.516;4.000;2023-03-14T02:22:38;12.30;99.90
6260;DHT22;3163;51.516;4.000;2023-03-14T02:25:12;12.40;99.90
6260;DHT22;3163;51.516;4.000;2023-03-14T02:27:39;12.40;99.90
6260;DHT22;3163;51.516;4.000;2023-03-14T02:30:10;12.30;99.90
6260;DHT22;3163;51.516;4.000;2023-03-14T02:32:38;12.30;99.90
6260;DHT22;3163;51.516;4.000;2023-03-14T02:35:09;12.30;99.90
6260;DHT22;3163;51.516;4.000;2023-03-14T02:37:42;12.40;99.90
6260;DHT22;3163;51.516;4.000;2023-03-14T02:40:09;12.40;99.90
6260;DHT22;3163;51.516;4.000;2023-03-14T02:42:35;12.40;99.90
6260;DHT22;3163;51.516;4.000;2023-03-14T02:47:51;12.40;99.90
6260;DHT22;3163;51.516;4.000;2023-03-14T02:50:22;12.40;99.90
6260;DHT22;3163;51.516;4.000;2023-03-14T02:52:50;12.40;99.90
6260;DHT22;3163;51.516;4.000;2023-03-14T02:55:23;12.40;99.90
6260;DHT22;3163;51.516;4.000;2023-03-14T02:57:49;12.30;99.90
6260;DHT22;3163;51.516;4.000;2023-03-14T03:00:16;12.30;99.90
6260;DHT22;3163;51.516;4.000;2023-03-14T03:02:41;12.30;99.90
6260;DHT22;3163;51.516;4.000;2023-03-14T03:05:07;12.20;99.90
6260;DHT22;3163;51.516;4.000;2023-03-14T03:07:33;12.20;99.90
6260;DHT22;3163;51.516;4.000;2023-03-14T03:09:58;12.20;99.90
6260;DHT22;3163;51.516;4.000;2023-03-14T03:12:24;12.20;99.90
6260;DHT22;3163;51.516;4.000;2023-03-14T03:14:50;12.20;99.90
6260;DHT22;3163;51.516;4.000;2023-03-14T03:17:15;12.20;99.90
6260;DHT22;3163;51.516;4.000;2023-03-14T03:19:42;12.20;99.90
6260;DHT22;3163;51.516;4.000;2023-03-14T03:22:07;12.20;99.90
6260;DHT22;3163;51.516;4.000;2023-03-14T03:24:33;12.20;99.90
6260;DHT22;3163;51.516;4.000;2023-03-14T03:26:58;12.20;99.90
6260;DHT22;3163;51.516;4.000;2023-03-14T03:29:24;12.20;99.90
6260;DHT22;3163;51.516;4.000;2023-03-14T03:31:50;12.30;99.90
6260;DHT22;3163;51.516;4.000;2023-03-14T03:34:15;12.30;99.90
6260;DHT22;3163;51.516;4.000;2023-03-14T03:36:42;12.20;99.90
6260;DHT22;3163;51.516;4.000;2023-03-14T03:39:07;12.20;99.90
6260;DHT22;3163;51.516;4.000;2023-03-14T03:41:33;12.20;99.90
6260;DHT22;3163;51.516;4.000;2023-03-14T03:43:59;12.20;99.90
6260;DHT22;3163;51.516;4.000;2023-03-14T03:46:25;12.20;99.90
6260;DHT22;3163;51.516;4.000;2023-03-14T03:48:56;12.20;99.90
6260;DHT22;3163;51.516;4.000;2023-03-14T03:51:22;12.20;99.90
6260;DHT22;3163;51.516;4.000;2023-03-14T03:53:47;12.20;99.90
6260;DHT22;3163;51.516;4.000;2023-03-14T03:56:13;12.20;99.90
6260;DHT22;3163;51.516;4.000;2023-03-14T03:58:39;12.20;99.90
6260;DHT22;3163;51.516;4.000;2023-03-14T04:01:05;12.10;99.90
6260;DHT22;3163;51.516;4.000;2023-03-14T04:03:32;12.10;99.90
6260;DHT22;3163;51.516;4.000;2023-03-14T04:06:03;12.10;99.90
6260;DHT22;3163;51.516;4.000;2023-03-14T04:08:29;12.10;99.90
6260;DHT22;3163;51.516;4.000;2023-03-14T04:10:59;12.10;99.90
6260;DHT22;3163;51.516;4.000;2023-03-14T04:13:26;12.20;99.90
6260;DHT22;3163;51.516;4.000;2023-03-14T04:15:52;12.10;99.90
6260;DHT22;3163;51.516;4.000;2023-03-14T04:18:18;12.20;99.90
6260;DHT22;3163;51.516;4.000;2023-03-14T04:20:44;12.10;99.90
6260;DHT22;3163;51.516;4.000;2023-03-14T04:23:10;12.10;99.90
6260;DHT22;3163;51.516;4.000;2023-03-14T04:25:35;12.10;99.90
6260;DHT22;3163;51.516;4.000;2023-03-14T04:28:01;12.00;99.90
6260;DHT22;3163;51.516;4.000;2023-03-14T04:30:29;12.10;99.90
6260;DHT22;3163;51.516;4.000;2023-03-14T04:32:55;12.10;99.90
6260;DHT22;3163;51.516;4.000;2023-03-14T04:35:20;12.10;99.90
6260;DHT22;3163;51.516;4.000;2023-03-14T04:37:46;12.00;99.90
6260;DHT22;3163;51.516;4.000;2023-03-14T04:40:15;12.10;99.90
6260;DHT22;3163;51.516;4.000;2023-03-14T04:42:40;12.10;99.90
6260;DHT22;3163;51.516;4.000;2023-03-14T04:45:07;12.10;99.90
6260;DHT22;3163;51.516;4.000;2023-03-14T04:47:33;12.10;99.90
6260;DHT22;3163;51.516;4.000;2023-03-14T04:49:58;12.10;99.90
6260;DHT22;3163;51.516;4.000;2023-03-14T04:52:24;12.00;99.90
6260;DHT22;3163;51.516;4.000;2023-03-14T04:54:50;12.00;99.90
6260;DHT22;3163;51.516;4.000;2023-03-14T04:57:15;12.00;99.90
6260;DHT22;3163;51.516;4.000;2023-03-14T04:59:41;12.00;99.90
6260;DHT22;3163;51.516;4.000;2023-03-14T05:02:06;12.00;99.90
6260;DHT22;3163;51.516;4.000;2023-03-14T05:04:32;11.90;99.90
6260;DHT22;3163;51.516;4.000;2023-03-14T05:06:59;12.00;99.90
6260;DHT22;3163;51.516;4.000;2023-03-14T05:09:25;12.00;99.90
6260;DHT22;3163;51.516;4.000;2023-03-14T05:11:50;12.00;99.90
6260;DHT22;3163;51.516;4.000;2023-03-14T05:14:16;12.00;99.90
6260;DHT22;3163;51.516;4.000;2023-03-14T05:16:42;12.00;99.90
6260;DHT22;3163;51.516;4.000;2023-03-14T05:19:07;12.00;99.90
6260;DHT22;3163;51.516;4.000;2023-03-14T05:21:33;12.00;99.90
6260;DHT22;3163;51.516;4.000;2023-03-14T05:23:58;12.00;99.90
6260;DHT22;3163;51.516;4.000;2023-03-14T05:26:24;12.10;99.90
6260;DHT22;3163;51.516;4.000;2023-03-14T05:28:50;12.10;99.90
6260;DHT22;3163;51.516;4.000;2023-03-14T05:31:15;12.00;99.90
6260;DHT22;3163;51.516;4.000;2023-03-14T05:33:41;12.00;99.90
6260;DHT22;3163;51.516;4.000;2023-03-14T05:36:07;12.00;99.90
6260;DHT22;3163;51.516;4.000;2023-03-14T05:38:33;12.00;99.90
6260;DHT22;3163;51.516;4.000;2023-03-14T05:40:58;12.00;99.90
6260;DHT22;3163;51.516;4.000;2023-03-14T05:43:24;11.90;99.90
6260;DHT22;3163;51.516;4.000;2023-03-14T05:45:50;11.90;99.90
6260;DHT22;3163;51.516;4.000;2023-03-14T05:48:15;11.90;99.90
6260;DHT22;3163;51.516;4.000;2023-03-14T05:50:42;11.90;99.90
6260;DHT22;3163;51.516;4.000;2023-03-14T05:53:07;11.90;99.90
6260;DHT22;3163;51.516;4.000;2023-03-14T05:55:33;11.90;99.90
6260;DHT22;3163;51.516;4.000;2023-03-14T05:57:59;11.90;99.90
6260;DHT22;3163;51.516;4.000;2023-03-14T06:00:24;11.90;99.90
6260;DHT22;3163;51.516;4.000;2023-03-14T06:02:50;11.90;99.90
6260;DHT22;3163;51.516;4.000;2023-03-14T06:05:15;11.90;99.90
6260;DHT22;3163;51.516;4.000;2023-03-14T06:07:41;11.80;99.90
6260;DHT22;3163;51.516;4.000;2023-03-14T06:10:07;11.90;99.90
6260;DHT22;3163;51.516;4.000;2023-03-14T06:12:33;11.80;99.90
6260;DHT22;3163;51.516;4.000;2023-03-14T06:14:58;11.80;99.90
6260;DHT22;3163;51.516;4.000;2023-03-14T06:17:24;11.80;99.90
6260;DHT22;3163;51.516;4.000;2023-03-14T06:19:49;11.80;99.90
6260;DHT22;3163;51.516;4.000;2023-03-14T06:22:15;11.80;99.90
6260;DHT22;3163;51.516;4.000;2023-03-14T06:24:41;11.80;99.90
6260;DHT22;3163;51.516;4.000;2023-03-14T06:27:06;11.80;99.90
6260;DHT22;3163;51.516;4.000;2023-03-14T06:29:32;11.80;99.90
6260;DHT22;3163;51.516;4.000;2023-03-14T06:31:59;11.80;99.90
6260;DHT22;3163;51.516;4.000;2023-03-14T06:34:24;11.80;99.90
6260;DHT22;3163;51.516;4.000;2023-03-14T06:36:51;11.90;99.90
6260;DHT22;3163;51.516;4.000;2023-03-14T06:39:16;11.80;99.90
6260;DHT22;3163;51.516;4.000;2023-03-14T06:41:42;11.80;99.90
6260;DHT22;3163;51.516;4.000;2023-03-14T06:44:07;11.90;99.90
6260;DHT22;3163;51.516;4.000;2023-03-14T06:46:33;11.90;99.90
6260;DHT22;3163;51.516;4.000;2023-03-14T06:48:58;11.90;99.90
6260;DHT22;3163;51.516;4.000;2023-03-14T06:51:24;11.90;99.90
6260;DHT22;3163;51.516;4.000;2023-03-14T06:53:50;12.00;99.90
6260;DHT22;3163;51.516;4.000;2023-03-14T06:56:15;12.00;99.90
6260;DHT22;3163;51.516;4.000;2023-03-14T06:58:41;12.00;99.90
6260;DHT22;3163;51.516;4.000;2023-03-14T07:01:22;12.00;99.90
6260;DHT22;3163;51.516;4.000;2023-03-14T07:03:48;11.60;99.90
6260;DHT22;3163;51.516;4.000;2023-03-14T07:06:14;10.80;99.90
6260;DHT22;3163;51.516;4.000;2023-03-14T07:08:40;11.10;99.90
6260;DHT22;3163;51.516;4.000;2023-03-14T07:11:07;11.60;99.90
6260;DHT22;3163;51.516;4.000;2023-03-14T07:13:33;11.80;99.90
6260;DHT22;3163;51.516;4.000;2023-03-14T07:15:58;12.00;99.90
6260;DHT22;3163;51.516;4.000;2023-03-14T07:18:24;12.00;99.90
6260;DHT22;3163;51.516;4.000;2023-03-14T07:20:50;12.00;99.90
6260;DHT22;3163;51.516;4.000;2023-03-14T07:23:15;12.00;99.90
6260;DHT22;3163;51.516;4.000;2023-03-14T07:25:41;12.10;99.90
6260;DHT22;3163;51.516;4.000;2023-03-14T07:28:06;12.10;99.90
6260;DHT22;3163;51.516;4.000;2023-03-14T07:30:32;12.10;99.90
6260;DHT22;3163;51.516;4.000;2023-03-14T07:32:58;12.10;99.90
6260;DHT22;3163;51.516;4.000;2023-03-14T07:35:23;12.20;99.90
6260;DHT22;3163;51.516;4.000;2023-03-14T07:37:49;12.30;99.90
6260;DHT22;3163;51.516;4.000;2023-03-14T07:40:14;12.30;99.90
6260;DHT22;3163;51.516;4.000;2023-03-14T07:42:41;12.30;99.90
6260;DHT22;3163;51.516;4.000;2023-03-14T07:45:08;12.30;99.90
6260;DHT22;3163;51.516;4.000;2023-03-14T07:47:34;12.30;99.90
6260;DHT22;3163;51.516;4.000;2023-03-14T07:50:01;12.40;99.90
6260;DHT22;3163;51.516;4.000;2023-03-14T07:52:27;12.40;99.90
6260;DHT22;3163;51.516;4.000;2023-03-14T07:54:53;12.50;99.90
6260;DHT22;3163;51.516;4.000;2023-03-14T07:57:18;12.30;99.90
6260;DHT22;3163;51.516;4.000;2023-03-14T07:59:44;12.40;99.90
6260;DHT22;3163;51.516;4.000;2023-03-14T08:02:11;12.50;99.90
6260;DHT22;3163;51.516;4.000;2023-03-14T08:04:37;12.40;99.90
6260;DHT22;3163;51.516;4.000;2023-03-14T08:07:03;12.50;99.90
6260;DHT22;3163;51.516;4.000;2023-03-14T08:09:29;12.50;99.90
6260;DHT22;3163;51.516;4.000;2023-03-14T08:11:54;12.50;99.90
6260;DHT22;3163;51.516;4.000;2023-03-14T08:14:20;12.50;99.90
6260;DHT22;3163;51.516;4.000;2023-03-14T08:16:45;12.40;99.90
6260;DHT22;3163;51.516;4.000;2023-03-14T08:19:11;12.50;99.90
6260;DHT22;3163;51.516;4.000;2023-03-14T08:21:36;12.50;99.90
6260;DHT22;3163;51.516;4.000;2023-03-14T08:24:02;12.50;99.90
6260;DHT22;3163;51.516;4.000;2023-03-14T08:26:28;12.40;99.90
6260;DHT22;3163;51.516;4.000;2023-03-14T08:28:53;12.40;99.90
6260;DHT22;3163;51.516;4.000;2023-03-14T08:31:19;12.50;99.90
6260;DHT22;3163;51.516;4.000;2023-03-14T08:33:44;12.50;99.90
6260;DHT22;3163;51.516;4.000;2023-03-14T08:36:10;12.60;99.90
6260;DHT22;3163;51.516;4.000;2023-03-14T08:38:35;12.50;99.90
6260;DHT22;3163;51.516;4.000;2023-03-14T08:41:02;12.40;99.90
6260;DHT22;3163;51.516;4.000;2023-03-14T08:43:29;12.40;99.90
6260;DHT22;3163;51.516;4.000;2023-03-14T08:45:58;12.50;99.90
6260;DHT22;3163;51.516;4.000;2023-03-14T08:48:24;12.40;99.90
6260;DHT22;3163;51.516;4.000;2023-03-14T08:50:49;12.50;99.90
6260;DHT22;3163;51.516;4.000;2023-03-14T08:53:15;12.30;99.90
6260;DHT22;3163;51.516;4.000;2023-03-14T08:55:40;12.20;99.90
6260;DHT22;3163;51.516;4.000;2023-03-14T08:58:06;12.30;99.90
6260;DHT22;3163;51.516;4.000;2023-03-14T09:00:32;12.30;99.90
6260;DHT22;3163;51.516;4.000;2023-03-14T09:02:57;12.40;99.90
6260;DHT22;3163;51.516;4.000;2023-03-14T09:05:23;12.20;99.90
6260;DHT22;3163;51.516;4.000;2023-03-14T09:07:48;12.30;99.90
6260;DHT22;3163;51.516;4.000;2023-03-14T09:10:14;12.30;99.90
6260;DHT22;3163;51.516;4.000;2023-03-14T09:12:40;12.40;99.90
6260;DHT22;3163;51.516;4.000;2023-03-14T09:15:06;12.40;99.90
6260;DHT22;3163;51.516;4.000;2023-03-14T09:17:32;12.30;99.90
6260;DHT22;3163;51.516;4.000;2023-03-14T09:19:57;12.20;99.90
6260;DHT22;3163;51.516;4.000;2023-03-14T09:22:23;12.20;99.90
6260;DHT22;3163;51.516;4.000;2023-03-14T09:24:49;12.20;99.90
6260;DHT22;3163;51.516;4.000;2023-03-14T09:27:14;12.20;99.90
6260;DHT22;3163;51.516;4.000;2023-03-14T09:29:40;12.30;99.90
6260;DHT22;3163;51.516;4.000;2023-03-14T09:32:06;12.40;99.90
6260;DHT22;3163;51.516;4.000;2023-03-14T09:34:32;12.50;99.90
6260;DHT22;3163;51.516;4.000;2023-03-14T09:36:58;12.40;99.90
6260;DHT22;3163;51.516;4.000;2023-03-14T09:39:23;12.50;99.90
6260;DHT22;3163;51.516;4.000;2023-03-14T09:41:51;12.10;99.90
6260;DHT22;3163;51.516;4.000;2023-03-14T09:44:27;12.50;99.90
6260;DHT22;3163;51.516;4.000;2023-03-14T09:46:57;12.50;99.90
6260;DHT22;3163;51.516;4.000;2023-03-14T09:49:31;12.60;99.90
6260;DHT22;3163;51.516;4.000;2023-03-14T09:52:00;12.60;99.90
6260;DHT22;3163;51.516;4.000;2023-03-14T09:54:36;12.60;99.90
6260;DHT22;3163;51.516;4.000;2023-03-14T09:57:05;12.70;99.90
6260;DHT22;3163;51.516;4.000;2023-03-14T09:59:30;12.70;99.90
6260;DHT22;3163;51.516;4.000;2023-03-14T10:02:01;12.70;99.90
6260;DHT22;3163;51.516;4.000;2023-03-14T10:04:28;12.60;99.90
6260;DHT22;3163;51.516;4.000;2023-03-14T10:06:55;12.60;99.90
6260;DHT22;3163;51.516;4.000;2023-03-14T10:09:23;12.60;99.90
6260;DHT22;3163;51.516;4.000;2023-03-14T10:11:56;12.40;99.90
6260;DHT22;3163;51.516;4.000;2023-03-14T10:14:37;12.60;99.90
6260;DHT22;3163;51.516;4.000;2023-03-14T10:17:13;12.40;99.90
6260;DHT22;3163;51.516;4.000;2023-03-14T10:19:58;12.50;99.90
6260;DHT22;3163;51.516;4.000;2023-03-14T10:22:28;12.60;99.90
6260;DHT22;3163;51.516;4.000;2023-03-14T10:24:57;12.20;99.90
6260;DHT22;3163;51.516;4.000;2023-03-14T10:27:33;12.20;99.90
6260;DHT22;3163;51.516;4.000;2023-03-14T10:30:05;12.30;99.90
6260;DHT22;3163;51.516;4.000;2023-03-14T10:32:35;12.30;99.90
6260;DHT22;3163;51.516;4.000;2023-03-14T10:40:14;12.30;99.90
6260;DHT22;3163;51.516;4.000;2023-03-14T10:42:42;12.60;99.90
6260;DHT22;3163;51.516;4.000;2023-03-14T10:45:35;12.50;99.90
6260;DHT22;3163;51.516;4.000;2023-03-14T10:51:48;12.80;99.90
6260;DHT22;3163;51.516;4.000;2023-03-14T10:53:47;12.90;99.90
6260;DHT22;3163;51.516;4.000;2023-03-14T10:56:21;12.70;99.90
6260;DHT22;3163;51.516;4.000;2023-03-14T10:58:50;12.60;99.90
6260;DHT22;3163;51.516;4.000;2023-03-14T11:01:31;12.70;99.90
6260;DHT22;3163;51.516;4.000;2023-03-14T11:06:50;12.40;99.90
6260;DHT22;3163;51.516;4.000;2023-03-14T11:21:55;12.60;99.90
6260;DHT22;3163;51.516;4.000;2023-03-14T11:30:34;12.80;99.90
6260;DHT22;3163;51.516;4.000;2023-03-14T11:35:37;12.70;99.90
6260;DHT22;3163;51.516;4.000;2023-03-14T11:40:57;12.60;99.90
6260;DHT22;3163;51.516;4.000;2023-03-14T11:43:32;12.40;99.90
6260;DHT22;3163;51.516;4.000;2023-03-14T11:46:05;12.80;99.90
6260;DHT22;3163;51.516;4.000;2023-03-14T11:51:39;12.60;99.90
6260;DHT22;3163;51.516;4.000;2023-03-14T11:54:27;12.70;99.90
6260;DHT22;3163;51.516;4.000;2023-03-14T11:57:02;12.70;99.90
6260;DHT22;3163;51.516;4.000;2023-03-14T11:59:32;12.40;99.90
6260;DHT22;3163;51.516;4.000;2023-03-14T12:02:05;12.50;99.90
6260;DHT22;3163;51.516;4.000;2023-03-14T12:04:40;12.50;99.90
6260;DHT22;3163;51.516;4.000;2023-03-14T12:07:23;12.40;99.90
6260;DHT22;3163;51.516;4.000;2023-03-14T12:09:54;12.50;99.90
6260;DHT22;3163;51.516;4.000;2023-03-14T12:12:23;12.40;99.90
6260;DHT22;3163;51.516;4.000;2023-03-14T12:14:58;12.40;99.90
6260;DHT22;3163;51.516;4.000;2023-03-14T12:17:40;12.50;99.90
6260;DHT22;3163;51.516;4.000;2023-03-14T12:22:54;12.20;99.90
6260;DHT22;3163;51.516;4.000;2023-03-14T12:25:21;12.10;99.90
6260;DHT22;3163;51.516;4.000;2023-03-14T12:30:33;12.50;99.90
6260;DHT22;3163;51.516;4.000;2023-03-14T12:35:43;12.30;99.90
6260;DHT22;3163;51.516;4.000;2023-03-14T12:38:14;12.60;99.90
6260;DHT22;3163;51.516;4.000;2023-03-14T12:41:05;12.40;99.90
6260;DHT22;3163;51.516;4.000;2023-03-14T12:43:34;12.50;99.90
6260;DHT22;3163;51.516;4.000;2023-03-14T12:48:45;11.90;99.90
6260;DHT22;3163;51.516;4.000;2023-03-14T12:59:30;12.10;99.90
6260;DHT22;3163;51.516;4.000;2023-03-14T13:03:00;12.00;99.90
6260;DHT22;3163;51.516;4.000;2023-03-14T13:05:04;11.90;99.90
6260;DHT22;3163;51.516;4.000;2023-03-14T13:10:27;11.90;99.90
6260;DHT22;3163;51.516;4.000;2023-03-14T13:15:34;12.40;99.90
6260;DHT22;3163;51.516;4.000;2023-03-14T13:18:16;12.20;99.90
6260;DHT22;3163;51.516;4.000;2023-03-14T13:20:50;12.40;99.90
6260;DHT22;3163;51.516;4.000;2023-03-14T13:23:28;12.30;99.90
6260;DHT22;3163;51.516;4.000;2023-03-14T13:25:55;12.30;99.90
6260;DHT22;3163;51.516;4.000;2023-03-14T13:28:21;12.30;99.90
6260;DHT22;3163;51.516;4.000;2023-03-14T13:30:49;12.30;99.90
6260;DHT22;3163;51.516;4.000;2023-03-14T13:33:21;12.30;99.90
6260;DHT22;3163;51.516;4.000;2023-03-14T13:36:01;12.10;99.90
6260;DHT22;3163;51.516;4.000;2023-03-14T13:38:35;12.00;99.90
6260;DHT22;3163;51.516;4.000;2023-03-14T13:41:04;12.20;99.90
6260;DHT22;3163;51.516;4.000;2023-03-14T13:43:33;11.90;99.90
6260;DHT22;3163;51.516;4.000;2023-03-14T13:46:16;12.10;99.90
6260;DHT22;3163;51.516;4.000;2023-03-14T13:48:51;12.10;99.90
6260;DHT22;3163;51.516;4.000;2023-03-14T13:51:19;12.20;99.90
6260;DHT22;3163;51.516;4.000;2023-03-14T13:53:54;12.10;99.90
6260;DHT22;3163;51.516;4.000;2023-03-14T13:56:25;12.00;99.90
6260;DHT22;3163;51.516;4.000;2023-03-14T13:58:51;12.10;99.90
6260;DHT22;3163;51.516;4.000;2023-03-14T14:01:20;12.00;99.90
6260;DHT22;3163;51.516;4.000;2023-03-14T14:03:52;12.00;99.90
6260;DHT22;3163;51.516;4.000;2023-03-14T14:06:39;12.00;99.90
6260;DHT22;3163;51.516;4.000;2023-03-14T14:09:16;12.20;99.90
6260;DHT22;3163;51.516;4.000;2023-03-14T14:11:55;12.10;99.90
6260;DHT22;3163;51.516;4.000;2023-03-14T14:16:51;12.10;99.90
6260;DHT22;3163;51.516;4.000;2023-03-14T14:19:19;11.90;99.90
6260;DHT22;3163;51.516;4.000;2023-03-14T14:21:45;12.20;99.90
6260;DHT22;3163;51.516;4.000;2023-03-14T14:24:15;12.00;99.90
6260;DHT22;3163;51.516;4.000;2023-03-14T14:26:50;12.00;99.90
6260;DHT22;3163;51.516;4.000;2023-03-14T14:29:27;12.00;99.90
6260;DHT22;3163;51.516;4.000;2023-03-14T14:32:23;12.20;99.90
6260;DHT22;3163;51.516;4.000;2023-03-14T14:37:25;11.90;99.90
6260;DHT22;3163;51.516;4.000;2023-03-14T14:39:55;11.90;99.90
6260;DHT22;3163;51.516;4.000;2023-03-14T14:42:28;11.90;99.90
6260;DHT22;3163;51.516;4.000;2023-03-14T14:44:56;12.00;99.90
6260;DHT22;3163;51.516;4.000;2023-03-14T14:47:24;11.70;99.90
6260;DHT22;3163;51.516;4.000;2023-03-14T14:49:53;12.00;99.90
6260;DHT22;3163;51.516;4.000;2023-03-14T14:52:37;11.90;99.90
6260;DHT22;3163;51.516;4.000;2023-03-14T14:55:18;11.90;99.90
6260;DHT22;3163;51.516;4.000;2023-03-14T14:57:54;12.10;99.90
6260;DHT22;3163;51.516;4.000;2023-03-14T15:00:24;12.00;99.90
6260;DHT22;3163;51.516;4.000;2023-03-14T15:02:55;12.00;99.90
6260;DHT22;3163;51.516;4.000;2023-03-14T15:05:26;12.00;99.90
6260;DHT22;3163;51.516;4.000;2023-03-14T15:07:52;12.00;99.90
6260;DHT22;3163;51.516;4.000;2023-03-14T15:10:21;12.10;99.90
6260;DHT22;3163;51.516;4.000;2023-03-14T15:12:48;12.10;99.90
6260;DHT22;3163;51.516;4.000;2023-03-14T15:15:15;12.10;99.90
6260;DHT22;3163;51.516;4.000;2023-03-14T15:17:41;12.10;99.90
6260;DHT22;3163;51.516;4.000;2023-03-14T15:20:12;12.00;99.90
6260;DHT22;3163;51.516;4.000;2023-03-14T15:22:39;12.00;99.90
6260;DHT22;3163;51.516;4.000;2023-03-14T15:25:05;12.00;99.90
6260;DHT22;3163;51.516;4.000;2023-03-14T15:27:31;11.90;99.90
6260;DHT22;3163;51.516;4.000;2023-03-14T15:29:58;12.10;99.90
6260;DHT22;3163;51.516;4.000;2023-03-14T15:32:24;12.10;99.90
6260;DHT22;3163;51.516;4.000;2023-03-14T15:34:54;12.10;99.90
6260;DHT22;3163;51.516;4.000;2023-03-14T15:37:20;12.00;99.90
6260;DHT22;3163;51.516;4.000;2023-03-14T15:39:45;12.00;99.90
6260;DHT22;3163;51.516;4.000;2023-03-14T15:42:11;12.00;99.90
6260;DHT22;3163;51.516;4.000;2023-03-14T15:44:37;12.10;99.90
6260;DHT22;3163;51.516;4.000;2023-03-14T15:47:04;12.10;99.90
6260;DHT22;3163;51.516;4.000;2023-03-14T15:49:31;12.10;99.90
6260;DHT22;3163;51.516;4.000;2023-03-14T15:51:57;12.00;99.90
6260;DHT22;3163;51.516;4.000;2023-03-14T15:54:23;12.10;99.90
6260;DHT22;3163;51.516;4.000;2023-03-14T15:56:48;12.10;99.90
6260;DHT22;3163;51.516;4.000;2023-03-14T15:59:14;12.10;99.90
6260;DHT22;3163;51.516;4.000;2023-03-14T16:01:39;12.00;99.90
6260;DHT22;3163;51.516;4.000;2023-03-14T16:04:05;12.00;99.90
6260;DHT22;3163;51.516;4.000;2023-03-14T16:06:30;11.90;99.90
6260;DHT22;3163;51.516;4.000;2023-03-14T16:08:56;12.00;99.90
6260;DHT22;3163;51.516;4.000;2023-03-14T16:11:22;12.10;99.90
6260;DHT22;3163;51.516;4.000;2023-03-14T16:13:48;11.90;99.90
6260;DHT22;3163;51.516;4.000;2023-03-14T16:16:13;12.10;99.90
6260;DHT22;3163;51.516;4.000;2023-03-14T16:18:40;12.10;99.90
6260;DHT22;3163;51.516;4.000;2023-03-14T16:21:09;12.00;99.90
6260;DHT22;3163;51.516;4.000;2023-03-14T16:23:36;12.00;99.90
6260;DHT22;3163;51.516;4.000;2023-03-14T16:26:07;12.00;99.90
6260;DHT22;3163;51.516;4.000;2023-03-14T16:28:34;11.90;99.90
6260;DHT22;3163;51.516;4.000;2023-03-14T16:31:01;12.10;99.90
6260;DHT22;3163;51.516;4.000;2023-03-14T16:33:27;11.90;99.90
6260;DHT22;3163;51.516;4.000;2023-03-14T16:35:57;11.90;99.90
6260;DHT22;3163;51.516;4.000;2023-03-14T16:38:25;11.90;99.90
6260;DHT22;3163;51.516;4.000;2023-03-14T16:40:56;11.90;99.90
6260;DHT22;3163;51.516;4.000;2023-03-14T16:43:22;12.00;99.90
6260;DHT22;3163;51.516;4.000;2023-03-14T16:45:49;12.00;99.90
6260;DHT22;3163;51.516;4.000;2023-03-14T16:48:15;12.10;99.90
6260;DHT22;3163;51.516;4.000;2023-03-14T16:50:41;12.10;99.90
6260;DHT22;3163;51.516;4.000;2023-03-14T16:53:07;12.00;99.90
6260;DHT22;3163;51.516;4.000;2023-03-14T16:55:32;12.00;99.90
6260;DHT22;3163;51.516;4.000;2023-03-14T16:57:58;12.00;99.90
6260;DHT22;3163;51.516;4.000;2023-03-14T17:00:23;11.90;99.90
6260;DHT22;3163;51.516;4.000;2023-03-14T17:02:49;11.90;99.90
6260;DHT22;3163;51.516;4.000;2023-03-14T17:05:15;12.00;99.90
6260;DHT22;3163;51.516;4.000;2023-03-14T17:07:40;11.90;99.90
6260;DHT22;3163;51.516;4.000;2023-03-14T17:10:06;11.90;99.90
6260;DHT22;3163;51.516;4.000;2023-03-14T17:12:32;11.90;99.90
6260;DHT22;3163;51.516;4.000;2023-03-14T17:14:59;11.90;99.90
6260;DHT22;3163;51.516;4.000;2023-03-14T17:17:24;11.80;99.90
6260;DHT22;3163;51.516;4.000;2023-03-14T17:19:50;11.90;99.90
6260;DHT22;3163;51.516;4.000;2023-03-14T17:22:16;11.80;99.90
6260;DHT22;3163;51.516;4.000;2023-03-14T17:24:41;11.80;99.90
6260;DHT22;3163;51.516;4.000;2023-03-14T17:27:07;11.70;99.90
6260;DHT22;3163;51.516;4.000;2023-03-14T17:29:33;11.60;99.90